joomla templates top joomla templates template joomla

King Air Abend

Wetterbeurteilung mit Hilfe Webcam und ATIS

 

Webcam 1Webcam 2

(Zum vergrößern auf das Bild klicken)

Notam

D4565/18 - TRAINING AREA (AEROBATIC FLIGHT BOX) ESTABLISHED 2NM RADIUS CENTERED
ON 501548N 0105942E, AT COBURG-BRANDENSTEINSEBENE FOR GLIDER
AEROBATIC FLIGHTS. (30NM W HOF NDB HOF). GND - FL055, DAILY 0800-SS PLUS30,
01 JAN 08:00 2019 UNTIL 01 APR 23:59 2019 ESTIMATED. CREATED: 06 DEC 15:55 2018

C0503/18 - COBURG INFO CHANGED TO 128.680 (8.33 KHZ). 28 FEB 12:22 2018 UNTIL PERM. CREATED:
28 FEB 12:22 2018

C0132/18 - DIRECTION FINDING STATION (VDF) COMPLETELY WITHDRAWN. 15 FEB 00:01 2018 UNTIL PERM. CREATED: 19 JAN 10:58 2018

Wetteranzeige

Aktuelles Platzwetter Stand 21.01.2019 02:22Z

AvgMinMax
Windrichtung12070140Deg
Windgeschwindigkeit337kt
Sichtweite>10000m
Temperatur-4°C
Taupunkt-8°C
Feuchte72%
QNH1020.1hPa
QFE966.4hPa
WolkenOVC020

Aerodrome Terminal Information Service (ATIS) Coburg

METAR
EDQC 210220Z AUTO 11004KT 070V140 9999 OVC020 M04/M08 Q1020=

Wetterverlauf

Windvorhersage

Verkehrslandeplatz Coburg Brandensteinsebene
Tower
Zur Brandensteinsebene
96450 Coburg

 

Telefon +49 (0) 95 61 / 9 20 98
Telefax +49 (0) 95 61 / 9 20 06
EMail tower@vlp-coburg.de